sensor_id;sensor_type;location;lat;lon;timestamp;P1;durP1;ratioP1;P2;durP2;ratioP2
77563;SDS011;66703;48.076;9.220;2023-09-19T00:00:33;3.50;;;3.10;;
77563;SDS011;66703;48.076;9.220;2023-09-19T00:02:59;3.20;;;2.90;;
77563;SDS011;66703;48.076;9.220;2023-09-19T00:05:25;3.30;;;3.00;;
77563;SDS011;66703;48.076;9.220;2023-09-19T00:07:53;3.60;;;2.72;;
77563;SDS011;66703;48.076;9.220;2023-09-19T00:10:22;3.13;;;2.70;;
77563;SDS011;66703;48.076;9.220;2023-09-19T00:12:49;3.53;;;2.65;;
77563;SDS011;66703;48.076;9.220;2023-09-19T00:15:17;5.47;;;3.22;;
77563;SDS011;66703;48.076;9.220;2023-09-19T00:17:42;3.33;;;3.00;;
77563;SDS011;66703;48.076;9.220;2023-09-19T00:20:08;4.72;;;3.25;;
77563;SDS011;66703;48.076;9.220;2023-09-19T00:22:40;3.47;;;2.85;;
77563;SDS011;66703;48.076;9.220;2023-09-19T00:25:08;3.13;;;2.58;;
77563;SDS011;66703;48.076;9.220;2023-09-19T00:27:35;4.75;;;3.50;;
77563;SDS011;66703;48.076;9.220;2023-09-19T00:30:05;3.60;;;2.97;;
77563;SDS011;66703;48.076;9.220;2023-09-19T00:32:34;3.30;;;3.00;;
77563;SDS011;66703;48.076;9.220;2023-09-19T00:34:59;4.03;;;3.03;;
77563;SDS011;66703;48.076;9.220;2023-09-19T00:37:25;3.25;;;2.95;;
77563;SDS011;66703;48.076;9.220;2023-09-19T00:39:50;3.38;;;2.80;;
77563;SDS011;66703;48.076;9.220;2023-09-19T00:42:20;4.72;;;2.83;;
77563;SDS011;66703;48.076;9.220;2023-09-19T00:44:48;5.50;;;3.78;;
77563;SDS011;66703;48.076;9.220;2023-09-19T00:47:16;3.78;;;2.90;;
77563;SDS011;66703;48.076;9.220;2023-09-19T00:49:43;4.38;;;3.08;;
77563;SDS011;66703;48.076;9.220;2023-09-19T00:52:10;4.38;;;2.85;;
77563;SDS011;66703;48.076;9.220;2023-09-19T00:54:36;4.88;;;3.90;;
77563;SDS011;66703;48.076;9.220;2023-09-19T00:57:01;5.38;;;3.05;;
77563;SDS011;66703;48.076;9.220;2023-09-19T00:59:27;4.57;;;3.17;;
77563;SDS011;66703;48.076;9.220;2023-09-19T01:01:53;4.85;;;3.28;;
77563;SDS011;66703;48.076;9.220;2023-09-19T01:04:20;5.72;;;3.10;;
77563;SDS011;66703;48.076;9.220;2023-09-19T01:06:45;5.40;;;3.47;;
77563;SDS011;66703;48.076;9.220;2023-09-19T01:09:11;3.50;;;3.20;;
77563;SDS011;66703;48.076;9.220;2023-09-19T01:11:38;4.53;;;4.13;;
77563;SDS011;66703;48.076;9.220;2023-09-19T01:17:00;4.53;;;4.10;;
77563;SDS011;66703;48.076;9.220;2023-09-19T01:28:13;5.97;;;3.67;;
77563;SDS011;66703;48.076;9.220;2023-09-19T01:30:46;4.70;;;3.78;;
77563;SDS011;66703;48.076;9.220;2023-09-19T01:33:12;4.05;;;3.33;;
77563;SDS011;66703;48.076;9.220;2023-09-19T01:35:39;4.43;;;3.33;;
77563;SDS011;66703;48.076;9.220;2023-09-19T01:41:11;5.18;;;4.15;;
77563;SDS011;66703;48.076;9.220;2023-09-19T01:43:43;5.25;;;3.70;;
77563;SDS011;66703;48.076;9.220;2023-09-19T01:46:14;5.10;;;4.60;;
77563;SDS011;66703;48.076;9.220;2023-09-19T01:48:46;4.55;;;3.33;;
77563;SDS011;66703;48.076;9.220;2023-09-19T01:51:51;5.00;;;3.70;;
77563;SDS011;66703;48.076;9.220;2023-09-19T01:54:30;4.80;;;3.45;;
77563;SDS011;66703;48.076;9.220;2023-09-19T01:57:20;4.90;;;4.28;;
77563;SDS011;66703;48.076;9.220;2023-09-19T02:00:01;5.22;;;3.72;;
77563;SDS011;66703;48.076;9.220;2023-09-19T02:02:35;4.95;;;3.90;;
77563;SDS011;66703;48.076;9.220;2023-09-19T02:05:02;4.45;;;3.70;;
77563;SDS011;66703;48.076;9.220;2023-09-19T02:07:29;3.70;;;3.10;;
77563;SDS011;66703;48.076;9.220;2023-09-19T02:10:02;6.75;;;4.25;;
77563;SDS011;66703;48.076;9.220;2023-09-19T02:12:31;4.88;;;3.60;;
77563;SDS011;66703;48.076;9.220;2023-09-19T02:14:57;3.90;;;3.55;;
77563;SDS011;66703;48.076;9.220;2023-09-19T02:17:24;6.07;;;4.30;;
77563;SDS011;66703;48.076;9.220;2023-09-19T02:20:03;4.70;;;3.50;;
77563;SDS011;66703;48.076;9.220;2023-09-19T02:22:53;4.65;;;3.70;;
77563;SDS011;66703;48.076;9.220;2023-09-19T02:25:19;4.72;;;3.65;;
77563;SDS011;66703;48.076;9.220;2023-09-19T02:27:46;5.57;;;3.10;;
77563;SDS011;66703;48.076;9.220;2023-09-19T02:30:21;3.63;;;3.05;;
77563;SDS011;66703;48.076;9.220;2023-09-19T02:33:32;5.60;;;3.25;;
77563;SDS011;66703;48.076;9.220;2023-09-19T02:36:37;4.90;;;3.90;;
77563;SDS011;66703;48.076;9.220;2023-09-19T02:39:18;4.53;;;3.50;;
77563;SDS011;66703;48.076;9.220;2023-09-19T02:41:45;5.00;;;3.45;;
77563;SDS011;66703;48.076;9.220;2023-09-19T02:44:11;4.57;;;3.58;;
77563;SDS011;66703;48.076;9.220;2023-09-19T02:46:58;3.85;;;3.50;;
77563;SDS011;66703;48.076;9.220;2023-09-19T02:50:15;6.57;;;3.60;;
77563;SDS011;66703;48.076;9.220;2023-09-19T02:56:20;3.70;;;3.05;;
77563;SDS011;66703;48.076;9.220;2023-09-19T02:59:31;4.50;;;3.25;;
77563;SDS011;66703;48.076;9.220;2023-09-19T03:01:37;3.75;;;3.20;;
77563;SDS011;66703;48.076;9.220;2023-09-19T03:04:07;4.55;;;3.60;;
77563;SDS011;66703;48.076;9.220;2023-09-19T03:06:39;4.10;;;3.80;;
77563;SDS011;66703;48.076;9.220;2023-09-19T03:09:17;5.88;;;4.05;;
77563;SDS011;66703;48.076;9.220;2023-09-19T03:11:58;4.07;;;3.25;;
77563;SDS011;66703;48.076;9.220;2023-09-19T03:15:03;3.95;;;3.20;;
77563;SDS011;66703;48.076;9.220;2023-09-19T03:21:10;3.65;;;2.70;;
77563;SDS011;66703;48.076;9.220;2023-09-19T03:23:47;3.03;;;2.53;;
77563;SDS011;66703;48.076;9.220;2023-09-19T03:26:27;3.03;;;2.50;;
77563;SDS011;66703;48.076;9.220;2023-09-19T03:28:53;3.97;;;2.53;;
77563;SDS011;66703;48.076;9.220;2023-09-19T03:31:24;3.05;;;2.78;;
77563;SDS011;66703;48.076;9.220;2023-09-19T03:34:01;4.05;;;2.90;;
77563;SDS011;66703;48.076;9.220;2023-09-19T03:36:29;2.78;;;2.35;;
77563;SDS011;66703;48.076;9.220;2023-09-19T03:39:07;5.10;;;2.90;;
77563;SDS011;66703;48.076;9.220;2023-09-19T03:41:35;3.00;;;2.40;;
77563;SDS011;66703;48.076;9.220;2023-09-19T03:44:11;3.22;;;2.67;;
77563;SDS011;66703;48.076;9.220;2023-09-19T03:46:37;3.15;;;2.85;;
77563;SDS011;66703;48.076;9.220;2023-09-19T03:49:06;3.75;;;2.45;;
77563;SDS011;66703;48.076;9.220;2023-09-19T03:51:37;2.90;;;2.40;;
77563;SDS011;66703;48.076;9.220;2023-09-19T03:54:10;2.58;;;2.38;;
77563;SDS011;66703;48.076;9.220;2023-09-19T03:56:45;3.60;;;2.45;;
77563;SDS011;66703;48.076;9.220;2023-09-19T03:59:18;4.70;;;2.53;;
77563;SDS011;66703;48.076;9.220;2023-09-19T04:01:51;2.95;;;2.28;;
77563;SDS011;66703;48.076;9.220;2023-09-19T04:04:20;4.43;;;2.53;;
77563;SDS011;66703;48.076;9.220;2023-09-19T04:06:46;2.95;;;2.30;;
77563;SDS011;66703;48.076;9.220;2023-09-19T04:09:15;2.95;;;2.40;;
77563;SDS011;66703;48.076;9.220;2023-09-19T04:11:41;3.33;;;2.13;;
77563;SDS011;66703;48.076;9.220;2023-09-19T04:14:10;4.40;;;3.50;;
77563;SDS011;66703;48.076;9.220;2023-09-19T04:16:35;2.22;;;1.98;;
77563;SDS011;66703;48.076;9.220;2023-09-19T04:19:00;2.38;;;2.17;;
77563;SDS011;66703;48.076;9.220;2023-09-19T04:21:26;2.08;;;1.88;;
77563;SDS011;66703;48.076;9.220;2023-09-19T04:23:53;2.85;;;2.13;;
77563;SDS011;66703;48.076;9.220;2023-09-19T04:26:19;6.20;;;2.50;;
77563;SDS011;66703;48.076;9.220;2023-09-19T04:28:44;3.28;;;2.95;;
77563;SDS011;66703;48.076;9.220;2023-09-19T04:31:11;2.70;;;2.30;;
77563;SDS011;66703;48.076;9.220;2023-09-19T04:33:36;2.92;;;2.38;;
77563;SDS011;66703;48.076;9.220;2023-09-19T04:36:02;3.92;;;2.40;;
77563;SDS011;66703;48.076;9.220;2023-09-19T04:38:30;3.17;;;2.30;;
77563;SDS011;66703;48.076;9.220;2023-09-19T04:41:03;2.20;;;2.00;;
77563;SDS011;66703;48.076;9.220;2023-09-19T04:43:30;3.25;;;2.40;;
77563;SDS011;66703;48.076;9.220;2023-09-19T04:46:18;3.00;;;2.70;;
77563;SDS011;66703;48.076;9.220;2023-09-19T04:49:40;4.53;;;2.45;;
77563;SDS011;66703;48.076;9.220;2023-09-19T04:51:59;2.38;;;2.17;;
77563;SDS011;66703;48.076;9.220;2023-09-19T04:54:24;2.58;;;2.38;;
77563;SDS011;66703;48.076;9.220;2023-09-19T04:57:00;3.30;;;2.10;;
77563;SDS011;66703;48.076;9.220;2023-09-19T05:00:25;3.60;;;2.22;;
77563;SDS011;66703;48.076;9.220;2023-09-19T05:03:01;3.13;;;2.17;;
77563;SDS011;66703;48.076;9.220;2023-09-19T05:12:37;2.40;;;2.20;;
77563;SDS011;66703;48.076;9.220;2023-09-19T05:19:00;3.65;;;2.72;;
77563;SDS011;66703;48.076;9.220;2023-09-19T05:22:15;3.25;;;2.50;;
77563;SDS011;66703;48.076;9.220;2023-09-19T05:25:34;3.67;;;3.38;;
77563;SDS011;66703;48.076;9.220;2023-09-19T05:28:36;3.38;;;2.58;;
77563;SDS011;66703;48.076;9.220;2023-09-19T05:31:21;3.50;;;3.20;;
77563;SDS011;66703;48.076;9.220;2023-09-19T05:34:26;5.47;;;3.83;;
77563;SDS011;66703;48.076;9.220;2023-09-19T05:45:54;4.10;;;3.42;;
77563;SDS011;66703;48.076;9.220;2023-09-19T05:48:42;4.40;;;3.55;;
77563;SDS011;66703;48.076;9.220;2023-09-19T05:51:09;5.47;;;3.28;;
77563;SDS011;66703;48.076;9.220;2023-09-19T05:53:43;3.95;;;2.90;;
77563;SDS011;66703;48.076;9.220;2023-09-19T05:59:49;3.28;;;2.90;;
77563;SDS011;66703;48.076;9.220;2023-09-19T06:08:27;4.43;;;3.00;;
77563;SDS011;66703;48.076;9.220;2023-09-19T06:10:54;3.78;;;3.25;;
77563;SDS011;66703;48.076;9.220;2023-09-19T06:13:24;4.82;;;3.80;;
77563;SDS011;66703;48.076;9.220;2023-09-19T06:20:15;4.25;;;3.20;;
77563;SDS011;66703;48.076;9.220;2023-09-19T06:22:43;2.95;;;2.65;;
77563;SDS011;66703;48.076;9.220;2023-09-19T06:25:10;4.38;;;3.08;;
77563;SDS011;66703;48.076;9.220;2023-09-19T06:27:37;3.35;;;2.78;;
77563;SDS011;66703;48.076;9.220;2023-09-19T06:30:07;2.90;;;2.40;;
77563;SDS011;66703;48.076;9.220;2023-09-19T06:35:28;3.13;;;2.80;;
77563;SDS011;66703;48.076;9.220;2023-09-19T06:38:17;4.57;;;3.17;;
77563;SDS011;66703;48.076;9.220;2023-09-19T06:40:51;3.67;;;3.00;;
77563;SDS011;66703;48.076;9.220;2023-09-19T06:43:16;2.53;;;2.33;;
77563;SDS011;66703;48.076;9.220;2023-09-19T06:45:42;3.85;;;3.45;;
77563;SDS011;66703;48.076;9.220;2023-09-19T06:48:07;3.33;;;3.03;;
77563;SDS011;66703;48.076;9.220;2023-09-19T06:50:35;4.55;;;4.22;;
77563;SDS011;66703;48.076;9.220;2023-09-19T06:53:03;3.05;;;2.75;;
77563;SDS011;66703;48.076;9.220;2023-09-19T06:55:31;3.35;;;3.05;;
77563;SDS011;66703;48.076;9.220;2023-09-19T06:57:57;3.08;;;2.70;;
77563;SDS011;66703;48.076;9.220;2023-09-19T07:00:27;4.53;;;2.90;;
77563;SDS011;66703;48.076;9.220;2023-09-19T07:02:57;2.95;;;2.53;;
77563;SDS011;66703;48.076;9.220;2023-09-19T07:05:40;2.80;;;2.60;;
77563;SDS011;66703;48.076;9.220;2023-09-19T07:08:13;3.72;;;3.38;;
77563;SDS011;66703;48.076;9.220;2023-09-19T07:10:40;3.47;;;3.17;;
77563;SDS011;66703;48.076;9.220;2023-09-19T07:13:13;4.78;;;4.28;;
77563;SDS011;66703;48.076;9.220;2023-09-19T07:15:43;3.45;;;3.15;;
77563;SDS011;66703;48.076;9.220;2023-09-19T07:18:17;4.78;;;3.13;;
77563;SDS011;66703;48.076;9.220;2023-09-19T07:20:44;3.03;;;2.72;;
77563;SDS011;66703;48.076;9.220;2023-09-19T07:23:17;2.92;;;2.35;;
77563;SDS011;66703;48.076;9.220;2023-09-19T07:25:44;3.63;;;2.78;;
77563;SDS011;66703;48.076;9.220;2023-09-19T07:28:09;3.03;;;2.60;;
77563;SDS011;66703;48.076;9.220;2023-09-19T07:30:38;3.55;;;3.22;;
77563;SDS011;66703;48.076;9.220;2023-09-19T07:33:04;3.25;;;3.00;;
77563;SDS011;66703;48.076;9.220;2023-09-19T07:35:37;3.22;;;2.78;;
77563;SDS011;66703;48.076;9.220;2023-09-19T07:38:05;3.17;;;2.55;;
77563;SDS011;66703;48.076;9.220;2023-09-19T07:40:31;7.15;;;2.65;;
77563;SDS011;66703;48.076;9.220;2023-09-19T07:42:56;2.78;;;2.47;;
77563;SDS011;66703;48.076;9.220;2023-09-19T07:45:22;3.17;;;2.88;;
77563;SDS011;66703;48.076;9.220;2023-09-19T07:47:47;4.90;;;3.20;;
77563;SDS011;66703;48.076;9.220;2023-09-19T07:50:14;3.97;;;3.33;;
77563;SDS011;66703;48.076;9.220;2023-09-19T07:52:51;3.92;;;2.65;;
77563;SDS011;66703;48.076;9.220;2023-09-19T07:55:17;3.95;;;2.42;;
77563;SDS011;66703;48.076;9.220;2023-09-19T07:57:44;3.30;;;2.47;;
77563;SDS011;66703;48.076;9.220;2023-09-19T08:00:11;3.83;;;3.53;;
77563;SDS011;66703;48.076;9.220;2023-09-19T08:02:38;4.55;;;3.30;;
77563;SDS011;66703;48.076;9.220;2023-09-19T08:05:10;3.05;;;2.58;;
77563;SDS011;66703;48.076;9.220;2023-09-19T08:07:41;4.57;;;3.28;;
77563;SDS011;66703;48.076;9.220;2023-09-19T08:10:07;3.45;;;3.13;;
77563;SDS011;66703;48.076;9.220;2023-09-19T08:12:36;3.47;;;2.65;;
77563;SDS011;66703;48.076;9.220;2023-09-19T08:15:05;3.42;;;2.97;;
77563;SDS011;66703;48.076;9.220;2023-09-19T08:17:34;2.92;;;2.50;;
77563;SDS011;66703;48.076;9.220;2023-09-19T08:20:00;3.28;;;2.38;;
77563;SDS011;66703;48.076;9.220;2023-09-19T08:22:28;4.95;;;2.67;;
77563;SDS011;66703;48.076;9.220;2023-09-19T08:24:54;4.22;;;2.67;;
77563;SDS011;66703;48.076;9.220;2023-09-19T08:28:07;2.92;;;2.28;;
77563;SDS011;66703;48.076;9.220;2023-09-19T08:30:24;2.78;;;2.53;;
77563;SDS011;66703;48.076;9.220;2023-09-19T08:33:23;3.13;;;2.60;;
77563;SDS011;66703;48.076;9.220;2023-09-19T08:35:58;4.60;;;2.45;;
77563;SDS011;66703;48.076;9.220;2023-09-19T08:45:09;2.70;;;2.33;;
77563;SDS011;66703;48.076;9.220;2023-09-19T09:01:02;3.60;;;2.40;;
77563;SDS011;66703;48.076;9.220;2023-09-19T09:07:31;3.00;;;2.30;;
77563;SDS011;66703;48.076;9.220;2023-09-19T09:10:12;3.35;;;2.42;;
77563;SDS011;66703;48.076;9.220;2023-09-19T09:13:28;4.60;;;2.30;;
77563;SDS011;66703;48.076;9.220;2023-09-19T09:20:23;2.38;;;1.75;;
77563;SDS011;66703;48.076;9.220;2023-09-19T09:23:33;2.20;;;1.33;;
77563;SDS011;66703;48.076;9.220;2023-09-19T09:26:03;2.55;;;1.75;;
77563;SDS011;66703;48.076;9.220;2023-09-19T09:28:35;2.28;;;1.40;;
77563;SDS011;66703;48.076;9.220;2023-09-19T09:41:55;1.70;;;1.50;;
77563;SDS011;66703;48.076;9.220;2023-09-19T09:46:07;3.50;;;1.92;;
77563;SDS011;66703;48.076;9.220;2023-09-19T10:11:48;1.70;;;1.60;;
77563;SDS011;66703;48.076;9.220;2023-09-19T10:52:17;2.92;;;2.22;;
77563;SDS011;66703;48.076;9.220;2023-09-19T10:55:06;3.55;;;1.90;;
77563;SDS011;66703;48.076;9.220;2023-09-19T10:57:58;3.15;;;1.80;;
77563;SDS011;66703;48.076;9.220;2023-09-19T11:00:50;1.70;;;1.52;;
77563;SDS011;66703;48.076;9.220;2023-09-19T11:03:22;2.72;;;2.08;;
77563;SDS011;66703;48.076;9.220;2023-09-19T11:06:03;2.35;;;1.48;;
77563;SDS011;66703;48.076;9.220;2023-09-19T11:11:50;2.38;;;1.50;;
77563;SDS011;66703;48.076;9.220;2023-09-19T11:34:44;2.40;;;1.88;;
77563;SDS011;66703;48.076;9.220;2023-09-19T11:43:51;2.42;;;1.60;;
77563;SDS011;66703;48.076;9.220;2023-09-19T11:46:23;2.45;;;1.70;;
77563;SDS011;66703;48.076;9.220;2023-09-19T11:49:08;2.95;;;1.80;;
77563;SDS011;66703;48.076;9.220;2023-09-19T11:51:41;2.17;;;1.70;;
77563;SDS011;66703;48.076;9.220;2023-09-19T11:54:10;5.15;;;1.88;;
77563;SDS011;66703;48.076;9.220;2023-09-19T11:56:54;2.58;;;1.90;;
77563;SDS011;66703;48.076;9.220;2023-09-19T11:59:20;3.47;;;1.73;;
77563;SDS011;66703;48.076;9.220;2023-09-19T12:04:30;2.42;;;1.60;;
77563;SDS011;66703;48.076;9.220;2023-09-19T12:07:15;2.72;;;1.77;;
77563;SDS011;66703;48.076;9.220;2023-09-19T12:09:42;3.45;;;1.85;;
77563;SDS011;66703;48.076;9.220;2023-09-19T12:12:20;3.15;;;1.65;;
77563;SDS011;66703;48.076;9.220;2023-09-19T12:14:51;3.17;;;1.85;;
77563;SDS011;66703;48.076;9.220;2023-09-19T12:17:18;2.05;;;1.55;;
77563;SDS011;66703;48.076;9.220;2023-09-19T12:19:52;4.38;;;1.70;;
77563;SDS011;66703;48.076;9.220;2023-09-19T12:22:19;2.10;;;1.90;;
77563;SDS011;66703;48.076;9.220;2023-09-19T12:24:45;3.58;;;1.80;;
77563;SDS011;66703;48.076;9.220;2023-09-19T12:27:11;2.42;;;1.80;;
77563;SDS011;66703;48.076;9.220;2023-09-19T12:29:47;3.95;;;1.60;;
77563;SDS011;66703;48.076;9.220;2023-09-19T12:32:14;3.45;;;1.67;;
77563;SDS011;66703;48.076;9.220;2023-09-19T12:34:41;5.38;;;2.03;;
77563;SDS011;66703;48.076;9.220;2023-09-19T12:37:11;2.60;;;1.73;;
77563;SDS011;66703;48.076;9.220;2023-09-19T12:39:44;3.05;;;1.90;;
77563;SDS011;66703;48.076;9.220;2023-09-19T12:42:17;2.65;;;1.77;;
77563;SDS011;66703;48.076;9.220;2023-09-19T12:44:43;4.82;;;1.92;;
77563;SDS011;66703;48.076;9.220;2023-09-19T12:47:16;3.28;;;1.63;;
77563;SDS011;66703;48.076;9.220;2023-09-19T12:50:04;4.20;;;1.70;;
77563;SDS011;66703;48.076;9.220;2023-09-19T12:52:47;3.30;;;1.67;;
77563;SDS011;66703;48.076;9.220;2023-09-19T12:58:00;2.65;;;1.70;;
77563;SDS011;66703;48.076;9.220;2023-09-19T13:03:19;3.28;;;1.98;;
77563;SDS011;66703;48.076;9.220;2023-09-19T13:06:11;2.92;;;1.75;;
77563;SDS011;66703;48.076;9.220;2023-09-19T13:08:40;4.32;;;1.95;;
77563;SDS011;66703;48.076;9.220;2023-09-19T13:11:15;2.20;;;2.00;;
77563;SDS011;66703;48.076;9.220;2023-09-19T13:19:49;4.97;;;2.15;;
77563;SDS011;66703;48.076;9.220;2023-09-19T13:25:18;2.33;;;2.05;;
77563;SDS011;66703;48.076;9.220;2023-09-19T13:27:45;2.63;;;2.03;;
77563;SDS011;66703;48.076;9.220;2023-09-19T13:30:13;2.05;;;1.58;;
77563;SDS011;66703;48.076;9.220;2023-09-19T13:32:39;2.80;;;1.70;;
77563;SDS011;66703;48.076;9.220;2023-09-19T13:35:06;2.13;;;1.67;;
77563;SDS011;66703;48.076;9.220;2023-09-19T13:37:35;2.38;;;1.42;;
77563;SDS011;66703;48.076;9.220;2023-09-19T13:40:15;2.00;;;1.52;;
77563;SDS011;66703;48.076;9.220;2023-09-19T13:42:41;2.35;;;1.80;;
77563;SDS011;66703;48.076;9.220;2023-09-19T13:45:07;2.30;;;1.70;;
77563;SDS011;66703;48.076;9.220;2023-09-19T13:47:36;2.83;;;1.73;;
77563;SDS011;66703;48.076;9.220;2023-09-19T13:50:03;2.55;;;1.70;;
77563;SDS011;66703;48.076;9.220;2023-09-19T13:52:30;1.80;;;1.60;;
77563;SDS011;66703;48.076;9.220;2023-09-19T13:54:56;1.95;;;1.60;;
77563;SDS011;66703;48.076;9.220;2023-09-19T13:57:23;5.32;;;1.70;;
77563;SDS011;66703;48.076;9.220;2023-09-19T13:59:58;1.60;;;1.50;;
77563;SDS011;66703;48.076;9.220;2023-09-19T14:02:24;2.38;;;1.60;;
77563;SDS011;66703;48.076;9.220;2023-09-19T14:04:49;2.00;;;1.60;;
77563;SDS011;66703;48.076;9.220;2023-09-19T14:07:15;2.35;;;1.95;;
77563;SDS011;66703;48.076;9.220;2023-09-19T14:09:43;1.75;;;1.52;;
77563;SDS011;66703;48.076;9.220;2023-09-19T14:12:09;2.20;;;1.80;;
77563;SDS011;66703;48.076;9.220;2023-09-19T14:14:39;4.55;;;1.92;;
77563;SDS011;66703;48.076;9.220;2023-09-19T14:19:35;3.75;;;1.70;;
77563;SDS011;66703;48.076;9.220;2023-09-19T14:22:01;2.25;;;2.05;;
77563;SDS011;66703;48.076;9.220;2023-09-19T14:24:32;3.65;;;1.90;;
77563;SDS011;66703;48.076;9.220;2023-09-19T14:27:01;2.67;;;2.10;;
77563;SDS011;66703;48.076;9.220;2023-09-19T14:29:29;2.33;;;1.60;;
77563;SDS011;66703;48.076;9.220;2023-09-19T14:31:55;2.85;;;1.85;;
77563;SDS011;66703;48.076;9.220;2023-09-19T14:34:22;1.90;;;1.60;;
77563;SDS011;66703;48.076;9.220;2023-09-19T14:36:51;3.50;;;1.98;;
77563;SDS011;66703;48.076;9.220;2023-09-19T14:39:16;2.70;;;1.58;;
77563;SDS011;66703;48.076;9.220;2023-09-19T14:41:42;2.95;;;1.88;;
77563;SDS011;66703;48.076;9.220;2023-09-19T14:44:07;2.10;;;1.80;;
77563;SDS011;66703;48.076;9.220;2023-09-19T14:46:36;2.80;;;1.70;;
77563;SDS011;66703;48.076;9.220;2023-09-19T14:49:02;2.58;;;1.90;;
77563;SDS011;66703;48.076;9.220;2023-09-19T14:51:30;2.45;;;2.05;;
77563;SDS011;66703;48.076;9.220;2023-09-19T14:54:00;2.38;;;1.90;;
77563;SDS011;66703;48.076;9.220;2023-09-19T14:56:30;3.08;;;2.00;;
77563;SDS011;66703;48.076;9.220;2023-09-19T14:58:57;2.83;;;2.25;;
77563;SDS011;66703;48.076;9.220;2023-09-19T15:01:23;2.15;;;1.67;;
77563;SDS011;66703;48.076;9.220;2023-09-19T15:03:49;3.42;;;1.92;;
77563;SDS011;66703;48.076;9.220;2023-09-19T15:06:14;2.63;;;1.95;;
77563;SDS011;66703;48.076;9.220;2023-09-19T15:08:44;4.20;;;2.20;;
77563;SDS011;66703;48.076;9.220;2023-09-19T15:11:15;5.32;;;2.20;;
77563;SDS011;66703;48.076;9.220;2023-09-19T15:13:42;2.88;;;2.13;;
77563;SDS011;66703;48.076;9.220;2023-09-19T15:16:08;2.45;;;2.08;;
77563;SDS011;66703;48.076;9.220;2023-09-19T15:18:37;2.17;;;1.98;;
77563;SDS011;66703;48.076;9.220;2023-09-19T15:21:04;2.20;;;1.98;;
77563;SDS011;66703;48.076;9.220;2023-09-19T15:23:30;5.47;;;1.90;;
77563;SDS011;66703;48.076;9.220;2023-09-19T15:25:59;1.70;;;1.60;;
77563;SDS011;66703;48.076;9.220;2023-09-19T15:28:25;2.13;;;1.92;;
77563;SDS011;66703;48.076;9.220;2023-09-19T15:31:10;2.72;;;2.22;;
77563;SDS011;66703;48.076;9.220;2023-09-19T15:33:37;2.15;;;1.77;;
77563;SDS011;66703;48.076;9.220;2023-09-19T15:36:07;2.83;;;1.70;;
77563;SDS011;66703;48.076;9.220;2023-09-19T15:41:29;2.35;;;1.60;;
77563;SDS011;66703;48.076;9.220;2023-09-19T15:43:58;2.20;;;1.90;;
77563;SDS011;66703;48.076;9.220;2023-09-19T15:46:31;2.55;;;2.03;;
77563;SDS011;66703;48.076;9.220;2023-09-19T15:48:59;2.30;;;2.10;;
77563;SDS011;66703;48.076;9.220;2023-09-19T15:51:25;2.65;;;1.98;;
77563;SDS011;66703;48.076;9.220;2023-09-19T15:53:52;1.90;;;1.70;;
77563;SDS011;66703;48.076;9.220;2023-09-19T15:56:19;3.15;;;2.15;;
77563;SDS011;66703;48.076;9.220;2023-09-19T15:58:52;2.20;;;1.73;;
77563;SDS011;66703;48.076;9.220;2023-09-19T16:01:22;1.90;;;1.70;;
77563;SDS011;66703;48.076;9.220;2023-09-19T16:03:48;2.72;;;1.90;;
77563;SDS011;66703;48.076;9.220;2023-09-19T16:06:17;2.70;;;1.70;;
77563;SDS011;66703;48.076;9.220;2023-09-19T16:08:48;1.85;;;1.75;;
77563;SDS011;66703;48.076;9.220;2023-09-19T16:11:14;2.40;;;2.03;;
77563;SDS011;66703;48.076;9.220;2023-09-19T16:13:41;2.20;;;2.00;;
77563;SDS011;66703;48.076;9.220;2023-09-19T16:16:13;2.55;;;2.05;;
77563;SDS011;66703;48.076;9.220;2023-09-19T16:18:45;2.65;;;2.28;;
77563;SDS011;66703;48.076;9.220;2023-09-19T16:21:13;3.08;;;2.20;;
77563;SDS011;66703;48.076;9.220;2023-09-19T16:23:39;3.45;;;2.13;;
77563;SDS011;66703;48.076;9.220;2023-09-19T16:26:05;3.28;;;2.50;;
77563;SDS011;66703;48.076;9.220;2023-09-19T16:28:35;2.10;;;1.90;;
77563;SDS011;66703;48.076;9.220;2023-09-19T16:31:02;3.40;;;1.80;;
77563;SDS011;66703;48.076;9.220;2023-09-19T16:33:28;3.80;;;2.35;;
77563;SDS011;66703;48.076;9.220;2023-09-19T16:35:54;2.85;;;2.10;;
77563;SDS011;66703;48.076;9.220;2023-09-19T16:38:20;3.17;;;2.10;;
77563;SDS011;66703;48.076;9.220;2023-09-19T16:40:53;3.38;;;2.03;;
77563;SDS011;66703;48.076;9.220;2023-09-19T16:43:20;2.45;;;2.10;;
77563;SDS011;66703;48.076;9.220;2023-09-19T16:45:58;3.00;;;1.88;;
77563;SDS011;66703;48.076;9.220;2023-09-19T16:52:23;2.85;;;1.60;;
77563;SDS011;66703;48.076;9.220;2023-09-19T16:58:14;2.13;;;1.92;;
77563;SDS011;66703;48.076;9.220;2023-09-19T17:04:52;2.60;;;1.83;;
77563;SDS011;66703;48.076;9.220;2023-09-19T17:07:19;3.50;;;1.92;;
77563;SDS011;66703;48.076;9.220;2023-09-19T17:09:46;3.35;;;2.05;;
77563;SDS011;66703;48.076;9.220;2023-09-19T17:12:12;2.30;;;1.80;;
77563;SDS011;66703;48.076;9.220;2023-09-19T17:14:42;3.13;;;2.20;;
77563;SDS011;66703;48.076;9.220;2023-09-19T17:17:12;3.60;;;1.85;;
77563;SDS011;66703;48.076;9.220;2023-09-19T17:19:37;4.05;;;1.92;;
77563;SDS011;66703;48.076;9.220;2023-09-19T17:22:06;2.30;;;2.10;;
77563;SDS011;66703;48.076;9.220;2023-09-19T17:24:32;2.17;;;1.98;;
77563;SDS011;66703;48.076;9.220;2023-09-19T17:26:58;2.13;;;1.92;;
77563;SDS011;66703;48.076;9.220;2023-09-19T17:29:26;2.47;;;2.28;;
77563;SDS011;66703;48.076;9.220;2023-09-19T17:32:02;2.67;;;2.28;;
77563;SDS011;66703;48.076;9.220;2023-09-19T17:34:28;3.83;;;2.33;;
77563;SDS011;66703;48.076;9.220;2023-09-19T17:36:54;2.60;;;2.40;;
77563;SDS011;66703;48.076;9.220;2023-09-19T17:39:19;3.95;;;2.40;;
77563;SDS011;66703;48.076;9.220;2023-09-19T17:41:45;2.88;;;2.60;;
77563;SDS011;66703;48.076;9.220;2023-09-19T17:44:18;2.92;;;2.42;;
77563;SDS011;66703;48.076;9.220;2023-09-19T17:46:44;3.33;;;2.20;;
77563;SDS011;66703;48.076;9.220;2023-09-19T17:49:09;4.43;;;2.13;;
77563;SDS011;66703;48.076;9.220;2023-09-19T17:51:36;2.70;;;2.30;;
77563;SDS011;66703;48.076;9.220;2023-09-19T17:54:02;3.03;;;2.33;;
77563;SDS011;66703;48.076;9.220;2023-09-19T17:56:30;2.20;;;2.00;;
77563;SDS011;66703;48.076;9.220;2023-09-19T17:58:55;3.30;;;3.00;;
77563;SDS011;66703;48.076;9.220;2023-09-19T18:04:25;3.28;;;2.17;;
77563;SDS011;66703;48.076;9.220;2023-09-19T18:06:50;3.83;;;2.30;;
77563;SDS011;66703;48.076;9.220;2023-09-19T18:09:16;2.55;;;2.30;;
77563;SDS011;66703;48.076;9.220;2023-09-19T18:11:46;2.50;;;2.30;;
77563;SDS011;66703;48.076;9.220;2023-09-19T18:14:11;2.38;;;2.15;;
77563;SDS011;66703;48.076;9.220;2023-09-19T18:21:37;5.63;;;2.30;;
77563;SDS011;66703;48.076;9.220;2023-09-19T18:24:07;4.43;;;3.30;;
77563;SDS011;66703;48.076;9.220;2023-09-19T18:26:39;3.97;;;2.92;;
77563;SDS011;66703;48.076;9.220;2023-09-19T18:29:05;3.30;;;2.97;;
77563;SDS011;66703;48.076;9.220;2023-09-19T18:31:36;3.08;;;2.88;;
77563;SDS011;66703;48.076;9.220;2023-09-19T18:34:30;3.38;;;3.08;;
77563;SDS011;66703;48.076;9.220;2023-09-19T18:37:48;3.15;;;2.85;;
77563;SDS011;66703;48.076;9.220;2023-09-19T18:40:54;3.90;;;3.60;;
77563;SDS011;66703;48.076;9.220;2023-09-19T18:44:13;4.38;;;3.63;;
77563;SDS011;66703;48.076;9.220;2023-09-19T18:46:39;4.28;;;3.55;;
77563;SDS011;66703;48.076;9.220;2023-09-19T18:52:19;3.60;;;3.30;;
77563;SDS011;66703;48.076;9.220;2023-09-19T18:54:44;3.53;;;3.22;;
77563;SDS011;66703;48.076;9.220;2023-09-19T18:57:18;4.70;;;4.05;;
77563;SDS011;66703;48.076;9.220;2023-09-19T18:59:53;5.00;;;3.58;;
77563;SDS011;66703;48.076;9.220;2023-09-19T19:02:18;3.80;;;3.50;;
77563;SDS011;66703;48.076;9.220;2023-09-19T19:04:49;5.53;;;3.33;;
77563;SDS011;66703;48.076;9.220;2023-09-19T19:07:15;3.00;;;2.70;;
77563;SDS011;66703;48.076;9.220;2023-09-19T19:09:44;3.70;;;3.40;;
77563;SDS011;66703;48.076;9.220;2023-09-19T19:12:10;3.67;;;3.33;;